No particular awareness of the weather is required.    There are no Weather-warnings


Meteo18 Weather Cam more information Meteo18 Weather Cam


Thunder radar more information blitzortung!


Rain radar more information rain snow radar


Visit our other weather sites:

Template documentation
and downloads

And another site



Weather Underground History page Text

Daily Summary for May 5, 2016 Units:  Metric    English   Both
« Previous Day
Next Day »
Daily Weekly Monthly Yearly Custom
  High: Low: Average:
Temperature: 23.3 °C 3.3 °C 13.6 °C
Dew Point: 8.8 °C 1.8 °C 5.3 °C
Humidity: 91 % 32 % 61 %
Wind Speed: 8.0 km/h 0.0 km/h 0.9 km/h
Wind Gust: 12.9 km/h - -
Wind:- - East
Pressure: 1021.6 hPa 1012.8 hPa -
Precipitation: 0.0 mm    
Historical Graphs
 
 
Tabular Data for May 5, 2016
Time Temperature Dew Point Pressure Wind Wind Speed Wind Gust Humidity Rainfall Rate (Hourly)
00:02 9.6 °C 4.6 °C 1021.6 hPa Calm   4.8 km/h 71 % 0.0 mm
00:07 9.4 °C 4.4 °C 1021.6 hPa Calm   4.8 km/h 71 % 0.0 mm
00:12 9.3 °C 4.5 °C 1021.6 hPa Calm   3.2 km/h 72 % 0.0 mm
00:17 9.2 °C 4.6 °C 1021.6 hPa Calm   3.2 km/h 73 % 0.0 mm
00:22 8.9 °C 4.5 °C 1021.6 hPa NE 1.6 km/h 3.2 km/h 74 % 0.0 mm
00:32 8.7 °C 4.5 °C 1021.6 hPa NNE 1.6 km/h 3.2 km/h 75 % 0.0 mm
00:42 8.9 °C 4.3 °C 1021.6 hPa NE 1.6 km/h 6.4 km/h 73 % 0.0 mm
00:47 9.0 °C 4.4 °C 1021.6 hPa NNE 1.6 km/h 6.4 km/h 73 % 0.0 mm
00:52 8.9 °C 4.3 °C 1021.6 hPa NNE 1.6 km/h 6.4 km/h 73 % 0.0 mm
00:57 8.8 °C 4.4 °C 1021.2 hPa NNE 1.6 km/h 6.4 km/h 74 % 0.0 mm
01:02 8.9 °C 4.3 °C 1021.6 hPa Calm   6.4 km/h 73 % 0.0 mm
01:07 8.9 °C 4.3 °C 1021.6 hPa Calm   6.4 km/h 73 % 0.0 mm
01:12 8.8 °C 4.4 °C 1021.2 hPa NNE 1.6 km/h 6.4 km/h 74 % 0.0 mm
01:17 8.7 °C 4.3 °C 1021.2 hPa North 1.6 km/h 6.4 km/h 74 % 0.0 mm
01:22 8.4 °C 4.0 °C 1021.2 hPa Calm   4.8 km/h 74 % 0.0 mm
01:27 8.3 °C 4.1 °C 1021.2 hPa Calm   4.8 km/h 75 % 0.0 mm
01:32 8.2 °C 4.2 °C 1021.2 hPa Calm   3.2 km/h 76 % 0.0 mm
01:42 7.9 °C 3.9 °C 1021.2 hPa Calm   3.2 km/h 76 % 0.0 mm
01:47 7.7 °C 3.9 °C 1021.2 hPa NNE 1.6 km/h 1.6 km/h 77 % 0.0 mm
01:52 7.6 °C 4.0 °C 1020.9 hPa Calm   1.6 km/h 78 % 0.0 mm
01:57 7.2 °C 3.8 °C 1020.9 hPa Calm   1.6 km/h 79 % 0.0 mm
02:02 6.8 °C 3.8 °C 1020.9 hPa Calm   1.6 km/h 81 % 0.0 mm
02:12 6.7 °C 3.8 °C 1020.9 hPa NE 1.6 km/h 1.6 km/h 82 % 0.0 mm
02:17 6.6 °C 3.7 °C 1020.5 hPa Calm   3.2 km/h 82 % 0.0 mm
02:22 6.4 °C 3.6 °C 1020.5 hPa Calm   3.2 km/h 82 % 0.0 mm
02:27 6.3 °C 3.6 °C 1020.5 hPa SE 1.6 km/h 3.2 km/h 83 % 0.0 mm
02:32 6.2 °C 3.5 °C 1020.5 hPa Calm   3.2 km/h 83 % 0.0 mm
02:37 6.2 °C 3.5 °C 1020.5 hPa Calm   3.2 km/h 83 % 0.0 mm
02:42 6.3 °C 3.5 °C 1020.5 hPa Calm   3.2 km/h 82 % 0.0 mm
02:47 6.6 °C 3.6 °C 1020.5 hPa Calm   3.2 km/h 81 % 0.0 mm
02:52 6.7 °C 3.5 °C 1020.5 hPa NE 3.2 km/h 3.2 km/h 80 % 0.0 mm
02:57 6.8 °C 3.6 °C 1020.5 hPa NE 1.6 km/h 4.8 km/h 80 % 0.0 mm
03:02 6.8 °C 3.4 °C 1020.5 hPa Calm   8.0 km/h 79 % 0.0 mm
03:07 6.8 °C 3.4 °C 1020.2 hPa NE 1.6 km/h 8.0 km/h 79 % 0.0 mm
03:12 6.8 °C 3.4 °C 1020.2 hPa NE 1.6 km/h 3.2 km/h 79 % 0.0 mm
03:17 6.8 °C 3.4 °C 1020.2 hPa Calm   4.8 km/h 79 % 0.0 mm
03:22 6.7 °C 3.3 °C 1020.2 hPa NE 1.6 km/h 4.8 km/h 79 % 0.0 mm
03:27 6.7 °C 3.3 °C 1020.2 hPa NE 1.6 km/h 4.8 km/h 79 % 0.0 mm
03:32 6.5 °C 3.3 °C 1020.2 hPa Calm   4.8 km/h 80 % 0.0 mm
03:37 6.3 °C 3.1 °C 1020.2 hPa Calm   3.2 km/h 80 % 0.0 mm
03:42 6.1 °C 3.1 °C 1020.2 hPa Calm   3.2 km/h 81 % 0.0 mm
03:47 5.7 °C 3.0 °C 1020.2 hPa Calm   1.6 km/h 83 % 0.0 mm
03:52 5.3 °C 2.8 °C 1019.9 hPa Calm     84 % 0.0 mm
03:57 5.1 °C 3.0 °C 1019.9 hPa Calm     86 % 0.0 mm
04:02 5.1 °C 3.0 °C 1019.9 hPa NE 1.6 km/h 1.6 km/h 86 % 0.0 mm
04:07 5.1 °C 3.0 °C 1019.9 hPa Calm   3.2 km/h 86 % 0.0 mm
04:12 5.3 °C 3.0 °C 1019.9 hPa Calm   3.2 km/h 85 % 0.0 mm
04:17 5.4 °C 2.9 °C 1019.9 hPa Calm   3.2 km/h 84 % 0.0 mm
04:22 5.2 °C 2.9 °C 1019.9 hPa Calm   3.2 km/h 85 % 0.0 mm
04:27 5.2 °C 2.9 °C 1019.9 hPa Calm   1.6 km/h 85 % 0.0 mm
04:32 5.0 °C 2.7 °C 1019.9 hPa Calm     85 % 0.0 mm
04:37 4.7 °C 2.4 °C 1019.9 hPa Calm     85 % 0.0 mm
04:42 4.4 °C 2.3 °C 1019.9 hPa Calm     86 % 0.0 mm
04:47 4.2 °C 2.2 °C 1019.9 hPa Calm     87 % 0.0 mm
04:52 4.0 °C 2.2 °C 1019.9 hPa Calm     88 % 0.0 mm
05:02 3.9 °C 2.1 °C 1019.9 hPa Calm     88 % 0.0 mm
05:12 3.5 °C 1.9 °C 1019.9 hPa Calm     89 % 0.0 mm
05:22 3.3 °C 1.8 °C 1019.5 hPa Calm     90 % 0.0 mm
05:27 3.3 °C 2.0 °C 1019.5 hPa Calm     91 % 0.0 mm
05:32 3.4 °C 2.1 °C 1019.2 hPa Calm   1.6 km/h 91 % 0.0 mm
05:37 3.4 °C 2.1 °C 1019.2 hPa Calm   1.6 km/h 91 % 0.0 mm
05:47 3.4 °C 2.1 °C 1019.2 hPa Calm     91 % 0.0 mm
05:52 3.4 °C 2.1 °C 1019.2 hPa Calm   1.6 km/h 91 % 0.0 mm
05:57 3.3 °C 1.8 °C 1019.2 hPa Calm   1.6 km/h 90 % 0.0 mm
06:12 4.0 °C 2.5 °C 1018.8 hPa Calm   3.2 km/h 90 % 0.0 mm
06:17 4.1 °C 2.5 °C 1018.8 hPa Calm   3.2 km/h 89 % 0.0 mm
06:27 3.9 °C 2.1 °C 1018.8 hPa Calm   1.6 km/h 88 % 0.0 mm
06:32 3.7 °C 2.1 °C 1018.8 hPa Calm   1.6 km/h 89 % 0.0 mm
06:37 3.6 °C 2.0 °C 1018.8 hPa Calm   1.6 km/h 89 % 0.0 mm
06:42 3.6 °C 2.1 °C 1018.8 hPa Calm   1.6 km/h 90 % 0.0 mm
06:47 3.9 °C 2.4 °C 1018.8 hPa Calm   1.6 km/h 90 % 0.0 mm
06:52 4.0 °C 2.5 °C 1019.2 hPa Calm   1.6 km/h 90 % 0.0 mm
07:02 4.2 °C 2.7 °C 1018.8 hPa Calm   4.8 km/h 90 % 0.0 mm
07:07 4.2 °C 2.7 °C 1018.8 hPa Calm   4.8 km/h 90 % 0.0 mm
07:12 4.4 °C 2.9 °C 1018.8 hPa Calm   4.8 km/h 90 % 0.0 mm
07:17 4.7 °C 3.2 °C 1018.8 hPa Calm   4.8 km/h 90 % 0.0 mm
07:22 4.9 °C 3.2 °C 1018.8 hPa Calm   6.4 km/h 89 % 0.0 mm
07:27 5.1 °C 3.4 °C 1018.8 hPa Calm   6.4 km/h 89 % 0.0 mm
07:32 5.2 °C 3.4 °C 1018.8 hPa Calm   6.4 km/h 88 % 0.0 mm
07:37 5.4 °C 3.6 °C 1018.8 hPa Calm   4.8 km/h 88 % 0.0 mm
07:42 5.7 °C 3.9 °C 1018.8 hPa Calm   4.8 km/h 88 % 0.0 mm
07:47 5.9 °C 3.9 °C 1018.8 hPa East 1.6 km/h 4.8 km/h 87 % 0.0 mm
07:52 6.2 °C 4.0 °C 1018.5 hPa Calm   4.8 km/h 86 % 0.0 mm
07:57 6.6 °C 4.3 °C 1018.5 hPa NNW 1.6 km/h 4.8 km/h 85 % 0.0 mm
08:02 6.9 °C 3.9 °C 1018.5 hPa NE 3.2 km/h 8.0 km/h 81 % 0.0 mm
08:12 7.6 °C 4.2 °C 1018.5 hPa Calm   8.0 km/h 79 % 0.0 mm
08:17 7.8 °C 4.4 °C 1018.5 hPa NE 1.6 km/h 8.0 km/h 79 % 0.0 mm
08:22 8.0 °C 4.4 °C 1018.2 hPa Calm   8.0 km/h 78 % 0.0 mm
08:27 8.2 °C 4.6 °C 1018.2 hPa Calm   6.4 km/h 78 % 0.0 mm
08:37 8.4 °C 4.6 °C 1018.2 hPa Calm   4.8 km/h 77 % 0.0 mm
08:42 8.6 °C 4.8 °C 1018.2 hPa NE 1.6 km/h 4.8 km/h 77 % 0.0 mm
08:52 9.2 °C 4.8 °C 1017.8 hPa Calm   4.8 km/h 74 % 0.0 mm
08:57 9.5 °C 5.1 °C 1017.8 hPa ENE 1.6 km/h 8.0 km/h 74 % 0.0 mm
09:02 9.8 °C 5.2 °C 1018.2 hPa NNE 1.6 km/h 8.0 km/h 73 % 0.0 mm
09:07 10.1 °C 5.3 °C 1017.8 hPa Calm   8.0 km/h 72 % 0.0 mm
09:12 10.3 °C 5.1 °C 1017.8 hPa North 1.6 km/h 8.0 km/h 70 % 0.0 mm
09:17 10.6 °C 5.4 °C 1017.8 hPa NNE 3.2 km/h 8.0 km/h 70 % 0.0 mm
09:22 10.8 °C 5.5 °C 1017.8 hPa NE 6.4 km/h 8.0 km/h 70 % 0.0 mm
09:32 11.4 °C 5.1 °C 1017.8 hPa NE 3.2 km/h 11.3 km/h 65 % 0.0 mm
09:37 12.0 °C 5.6 °C 1017.8 hPa NNE 6.4 km/h 11.3 km/h 65 % 0.0 mm
09:42 12.4 °C 5.8 °C 1017.8 hPa ENE 1.6 km/h 9.7 km/h 64 % 0.0 mm
09:57 13.2 °C 6.1 °C 1017.8 hPa NNE 3.2 km/h 9.7 km/h 62 % 0.0 mm
10:02 13.6 °C 6.0 °C 1017.8 hPa Calm   9.7 km/h 60 % 0.0 mm
10:07 13.9 °C 6.0 °C 1017.8 hPa ENE 1.6 km/h 9.7 km/h 59 % 0.0 mm
10:12 14.1 °C 6.0 °C 1017.8 hPa NNE 1.6 km/h 11.3 km/h 58 % 0.0 mm
10:17 14.4 °C 6.0 °C 1017.8 hPa NE 3.2 km/h 11.3 km/h 57 % 0.0 mm
10:22 14.6 °C 6.2 °C 1017.8 hPa NE 4.8 km/h 11.3 km/h 57 % 0.0 mm
10:27 14.7 °C 6.0 °C 1017.8 hPa NNE 4.8 km/h 9.7 km/h 56 % 0.0 mm
10:32 15.2 °C 6.2 °C 1017.8 hPa NNE 6.4 km/h 9.7 km/h 55 % 0.0 mm
10:37 15.4 °C 5.9 °C 1017.8 hPa Calm   9.7 km/h 53 % 0.0 mm
10:42 15.7 °C 6.9 °C 1017.8 hPa SSE 1.6 km/h 9.7 km/h 56 % 0.0 mm
10:47 16.3 °C 6.7 °C 1017.8 hPa NE 1.6 km/h 9.7 km/h 53 % 0.0 mm
10:52 16.8 °C 7.2 °C 1017.8 hPa NE 4.8 km/h 6.4 km/h 53 % 0.0 mm
10:57 16.9 °C 6.4 °C 1017.5 hPa Calm   8.0 km/h 50 % 0.0 mm
11:02 17.0 °C 6.2 °C 1017.5 hPa WSW 1.6 km/h 8.0 km/h 49 % 0.0 mm
11:07 17.6 °C 6.8 °C 1017.5 hPa Calm   11.3 km/h 49 % 0.0 mm
11:12 18.2 °C 5.4 °C 1017.5 hPa Calm   11.3 km/h 43 % 0.0 mm
11:17 17.9 °C 6.7 °C 1017.5 hPa Calm   4.8 km/h 48 % 0.0 mm
11:22 17.8 °C 6.3 °C 1017.5 hPa NNW 6.4 km/h 8.0 km/h 47 % 0.0 mm
11:27 18.1 °C 6.9 °C 1017.5 hPa Calm   9.7 km/h 48 % 0.0 mm
11:32 18.0 °C 6.5 °C 1017.2 hPa NNE 1.6 km/h 9.7 km/h 47 % 0.0 mm
11:37 18.0 °C 7.1 °C 1017.2 hPa NNE 3.2 km/h 9.7 km/h 49 % 0.0 mm
11:47 18.3 °C 6.2 °C 1017.2 hPa NE 3.2 km/h 9.7 km/h 45 % 0.0 mm
11:52 19.0 °C 5.1 °C 1017.2 hPa Calm   9.7 km/h 40 % 0.0 mm
11:57 19.4 °C 5.8 °C 1017.2 hPa ENE 1.6 km/h 8.0 km/h 41 % 0.0 mm
12:02 19.1 °C 5.2 °C 1017.2 hPa Calm   6.4 km/h 40 % 0.0 mm
12:07 19.6 °C 7.7 °C 1017.2 hPa NE 1.6 km/h 11.3 km/h 46 % 0.0 mm
12:12 20.1 °C 8.1 °C 1017.2 hPa Calm   11.3 km/h 46 % 0.0 mm
12:17 20.1 °C 5.0 °C 1017.2 hPa SE 1.6 km/h 6.4 km/h 37 % 0.0 mm
12:22 20.3 °C 7.6 °C 1017.2 hPa Calm   9.7 km/h 44 % 0.0 mm
12:32 20.3 °C 5.5 °C 1017.2 hPa ESE 1.6 km/h 9.7 km/h 38 % 0.0 mm
12:42 20.9 °C 7.5 °C 1016.8 hPa NE 1.6 km/h 9.7 km/h 42 % 0.0 mm
12:52 21.4 °C 6.5 °C 1016.8 hPa Calm   4.8 km/h 38 % 0.0 mm
12:57 21.1 °C 5.8 °C 1016.8 hPa NE 3.2 km/h 6.4 km/h 37 % 0.0 mm
13:02 20.8 °C 6.0 °C 1016.8 hPa Calm   8.0 km/h 38 % 0.0 mm
13:07 21.1 °C 7.3 °C 1016.5 hPa West 1.6 km/h 8.0 km/h 41 % 0.0 mm
13:12 21.3 °C 6.4 °C 1016.5 hPa Calm   8.0 km/h 38 % 0.0 mm
13:17 21.5 °C 5.8 °C 1016.5 hPa Calm   6.4 km/h 36 % 0.0 mm
13:22 21.7 °C 6.4 °C 1016.5 hPa Calm   4.8 km/h 37 % 0.0 mm
13:27 22.1 °C 6.7 °C 1016.5 hPa SSW 1.6 km/h 4.8 km/h 37 % 0.0 mm
13:32 22.3 °C 6.5 °C 1016.1 hPa NNW 1.6 km/h 4.8 km/h 36 % 0.0 mm
13:37 22.1 °C 5.5 °C 1016.1 hPa Calm   6.4 km/h 34 % 0.0 mm
13:42 22.1 °C 5.1 °C 1016.1 hPa North 1.6 km/h 8.0 km/h 33 % 0.0 mm
13:47 21.9 °C 6.9 °C 1016.1 hPa North 3.2 km/h 8.0 km/h 38 % 0.0 mm
13:52 22.1 °C 5.9 °C 1016.1 hPa NE 1.6 km/h 8.0 km/h 35 % 0.0 mm
14:02 21.6 °C 6.3 °C 1015.8 hPa Calm   9.7 km/h 37 % 0.0 mm
14:07 21.9 °C 6.5 °C 1015.8 hPa Calm   9.7 km/h 37 % 0.0 mm
14:12 21.8 °C 6.5 °C 1015.8 hPa NE 4.8 km/h 11.3 km/h 37 % 0.0 mm
14:17 21.9 °C 6.9 °C 1015.8 hPa Calm   11.3 km/h 38 % 0.0 mm
14:22 22.2 °C 7.6 °C 1015.5 hPa North 4.8 km/h 11.3 km/h 39 % 0.0 mm
14:27 21.9 °C 7.3 °C 1015.5 hPa SE 3.2 km/h 12.9 km/h 39 % 0.0 mm
14:32 22.0 °C 7.0 °C 1015.5 hPa West 1.6 km/h 12.9 km/h 38 % 0.0 mm
14:37 22.4 °C 6.6 °C 1015.5 hPa NE 3.2 km/h 12.9 km/h 36 % 0.0 mm
14:42 22.3 °C 7.7 °C 1015.5 hPa Calm   8.0 km/h 39 % 0.0 mm
14:47 22.2 °C 7.2 °C 1015.5 hPa Calm   8.0 km/h 38 % 0.0 mm
14:52 22.4 °C 6.6 °C 1015.5 hPa Calm   8.0 km/h 36 % 0.0 mm
14:57 22.6 °C 7.9 °C 1015.5 hPa SE 1.6 km/h 8.0 km/h 39 % 0.0 mm
15:02 22.7 °C 8.8 °C 1015.5 hPa Calm   8.0 km/h 41 % 0.0 mm
15:07 22.8 °C 8.1 °C 1015.5 hPa NW 4.8 km/h 9.7 km/h 39 % 0.0 mm
15:12 22.3 °C 7.7 °C 1015.1 hPa Calm   9.7 km/h 39 % 0.0 mm
15:17 22.3 °C 6.9 °C 1015.1 hPa NNE 8.0 km/h 8.0 km/h 37 % 0.0 mm
15:22 22.3 °C 6.9 °C 1015.1 hPa Calm   8.0 km/h 37 % 0.0 mm
15:27 22.4 °C 7.4 °C 1015.1 hPa ESE 3.2 km/h 8.0 km/h 38 % 0.0 mm
15:32 22.8 °C 6.5 °C 1015.1 hPa North 6.4 km/h 8.0 km/h 35 % 0.0 mm
15:37 22.8 °C 6.1 °C 1015.1 hPa Calm   9.7 km/h 34 % 0.0 mm
15:42 23.1 °C 7.2 °C 1015.1 hPa Calm   9.7 km/h 36 % 0.0 mm
15:47 23.0 °C 6.3 °C 1015.1 hPa Calm   9.7 km/h 34 % 0.0 mm
15:52 23.0 °C 5.4 °C 1014.8 hPa Calm   6.4 km/h 32 % 0.0 mm
15:57 22.8 °C 6.5 °C 1014.8 hPa Calm   9.7 km/h 35 % 0.0 mm
16:02 23.1 °C 6.4 °C 1014.8 hPa Calm   9.7 km/h 34 % 0.0 mm
16:07 23.3 °C 6.6 °C 1014.8 hPa Calm   9.7 km/h 34 % 0.0 mm
16:12 22.6 °C 6.4 °C 1014.8 hPa Calm   11.3 km/h 35 % 0.0 mm
16:17 22.1 °C 6.3 °C 1014.8 hPa WNW 6.4 km/h 11.3 km/h 36 % 0.0 mm
16:22 21.9 °C 6.2 °C 1014.8 hPa Calm   11.3 km/h 36 % 0.0 mm
16:32 21.7 °C 7.1 °C 1014.4 hPa NE 8.0 km/h 12.9 km/h 39 % 0.0 mm
16:37 21.7 °C 6.4 °C 1014.4 hPa NE 3.2 km/h 12.9 km/h 37 % 0.0 mm
16:42 21.6 °C 7.1 °C 1014.4 hPa NE 1.6 km/h 12.9 km/h 39 % 0.0 mm
16:47 21.7 °C 6.0 °C 1014.4 hPa NE 4.8 km/h 11.3 km/h 36 % 0.0 mm
16:52 21.7 °C 6.8 °C 1014.4 hPa Calm   11.3 km/h 38 % 0.0 mm
16:57 22.2 °C 8.3 °C 1014.4 hPa Calm   9.7 km/h 41 % 0.0 mm
17:02 22.3 °C 5.2 °C 1014.4 hPa Calm   8.0 km/h 33 % 0.0 mm
17:07 22.5 °C 6.3 °C 1014.4 hPa Calm   8.0 km/h 35 % 0.0 mm
17:12 22.4 °C 6.6 °C 1014.4 hPa Calm   9.7 km/h 36 % 0.0 mm
17:17 22.1 °C 5.9 °C 1014.4 hPa NNE 4.8 km/h 9.7 km/h 35 % 0.0 mm
17:22 21.8 °C 5.7 °C 1014.1 hPa NE 3.2 km/h 9.7 km/h 35 % 0.0 mm
17:32 21.9 °C 6.5 °C 1013.8 hPa East 1.6 km/h 9.7 km/h 37 % 0.0 mm
17:37 22.2 °C 7.2 °C 1013.8 hPa Calm   9.7 km/h 38 % 0.0 mm
17:42 22.9 °C 7.8 °C 1013.8 hPa Calm   8.0 km/h 38 % 0.0 mm
17:47 22.7 °C 6.4 °C 1013.8 hPa NNW 1.6 km/h 8.0 km/h 35 % 0.0 mm
17:52 22.7 °C 6.4 °C 1013.8 hPa ESE 1.6 km/h 8.0 km/h 35 % 0.0 mm
17:57 22.6 °C 5.9 °C 1013.8 hPa Calm   8.0 km/h 34 % 0.0 mm
18:02 22.2 °C 6.0 °C 1013.8 hPa Calm   4.8 km/h 35 % 0.0 mm
18:07 21.8 °C 6.1 °C 1013.8 hPa Calm   8.0 km/h 36 % 0.0 mm
18:12 21.7 °C 5.6 °C 1013.4 hPa NNE 1.6 km/h 8.0 km/h 35 % 0.0 mm
18:17 21.3 °C 5.2 °C 1013.4 hPa NNE 1.6 km/h 8.0 km/h 35 % 0.0 mm
18:22 21.2 °C 5.9 °C 1013.4 hPa SW 3.2 km/h 6.4 km/h 37 % 0.0 mm
18:27 21.1 °C 6.2 °C 1013.4 hPa Calm   6.4 km/h 38 % 0.0 mm
18:32 21.1 °C 6.2 °C 1013.4 hPa Calm   6.4 km/h 38 % 0.0 mm
18:37 20.9 °C 6.8 °C 1013.4 hPa Calm   3.2 km/h 40 % 0.0 mm
18:42 20.7 °C 5.9 °C 1013.4 hPa Calm   3.2 km/h 38 % 0.0 mm
18:47 20.5 °C 6.1 °C 1013.4 hPa Calm   3.2 km/h 39 % 0.0 mm
18:52 20.0 °C 7.0 °C 1013.4 hPa Calm   1.6 km/h 43 % 0.0 mm
18:57 19.4 °C 7.2 °C 1013.4 hPa Calm   1.6 km/h 45 % 0.0 mm
19:02 19.2 °C 7.3 °C 1013.4 hPa Calm     46 % 0.0 mm
19:07 19.0 °C 7.1 °C 1013.4 hPa Calm   1.6 km/h 46 % 0.0 mm
19:12 18.8 °C 7.2 °C 1013.4 hPa Calm   1.6 km/h 47 % 0.0 mm
19:17 18.8 °C 7.2 °C 1013.4 hPa Calm     47 % 0.0 mm
19:22 18.6 °C 7.4 °C 1013.4 hPa Calm     48 % 0.0 mm
19:27 18.2 °C 6.7 °C 1013.1 hPa Calm     47 % 0.0 mm
19:32 18.1 °C 6.9 °C 1013.1 hPa Calm   3.2 km/h 48 % 0.0 mm
19:37 17.8 °C 6.6 °C 1013.1 hPa Calm   3.2 km/h 48 % 0.0 mm
19:42 17.7 °C 6.5 °C 1013.1 hPa NE 1.6 km/h 1.6 km/h 48 % 0.0 mm
19:47 17.5 °C 7.0 °C 1013.1 hPa ENE 1.6 km/h 1.6 km/h 50 % 0.0 mm
19:52 17.3 °C 6.8 °C 1013.1 hPa Calm   1.6 km/h 50 % 0.0 mm
19:57 17.1 °C 7.2 °C 1013.1 hPa Calm   1.6 km/h 52 % 0.0 mm
20:02 16.8 °C 7.7 °C 1013.1 hPa Calm   1.6 km/h 55 % 0.0 mm
20:07 16.6 °C 7.3 °C 1013.1 hPa Calm     54 % 0.0 mm
20:12 16.3 °C 7.5 °C 1013.1 hPa Calm     56 % 0.0 mm
20:17 16.1 °C 7.8 °C 1013.1 hPa Calm     58 % 0.0 mm
20:22 15.8 °C 7.0 °C 1013.1 hPa Calm     56 % 0.0 mm
20:27 15.7 °C 7.5 °C 1013.1 hPa Calm     58 % 0.0 mm
20:32 15.4 °C 6.9 °C 1013.1 hPa Calm   3.2 km/h 57 % 0.0 mm
20:37 15.2 °C 7.2 °C 1013.1 hPa Calm   3.2 km/h 59 % 0.0 mm
20:42 14.9 °C 7.4 °C 1013.1 hPa Calm   3.2 km/h 61 % 0.0 mm
20:47 14.8 °C 7.1 °C 1013.1 hPa Calm   3.2 km/h 60 % 0.0 mm
20:52 14.8 °C 6.9 °C 1013.1 hPa Calm   3.2 km/h 59 % 0.0 mm
20:57 14.4 °C 6.5 °C 1013.1 hPa NNE 1.6 km/h 3.2 km/h 59 % 0.0 mm
21:02 14.2 °C 6.5 °C 1013.1 hPa NNE 1.6 km/h 3.2 km/h 60 % 0.0 mm
21:12 14.1 °C 6.7 °C 1013.1 hPa Calm   4.8 km/h 61 % 0.0 mm
21:17 13.7 °C 6.5 °C 1013.1 hPa Calm   4.8 km/h 62 % 0.0 mm
21:22 13.5 °C 6.8 °C 1013.1 hPa Calm   3.2 km/h 64 % 0.0 mm
21:27 13.4 °C 6.3 °C 1013.1 hPa Calm   4.8 km/h 62 % 0.0 mm
21:32 13.2 °C 6.1 °C 1013.4 hPa Calm   4.8 km/h 62 % 0.0 mm
21:37 13.0 °C 6.1 °C 1013.4 hPa Calm   4.8 km/h 63 % 0.0 mm
21:42 12.9 °C 6.3 °C 1013.4 hPa Calm   3.2 km/h 64 % 0.0 mm
21:47 12.7 °C 6.1 °C 1013.4 hPa Calm   3.2 km/h 64 % 0.0 mm
21:52 12.6 °C 6.0 °C 1013.4 hPa Calm   3.2 km/h 64 % 0.0 mm
21:57 12.4 °C 6.0 °C 1013.4 hPa Calm   3.2 km/h 65 % 0.0 mm
22:02 12.2 °C 6.3 °C 1013.4 hPa Calm   3.2 km/h 67 % 0.0 mm
22:12 11.4 °C 6.3 °C 1013.4 hPa Calm   1.6 km/h 71 % 0.0 mm
22:17 10.9 °C 6.3 °C 1013.4 hPa Calm     73 % 0.0 mm
22:22 10.6 °C 6.2 °C 1013.1 hPa Calm     74 % 0.0 mm
22:27 10.6 °C 6.0 °C 1013.1 hPa Calm   1.6 km/h 73 % 0.0 mm
22:32 10.7 °C 6.1 °C 1013.1 hPa Calm   1.6 km/h 73 % 0.0 mm
22:37 10.7 °C 5.9 °C 1013.1 hPa Calm   1.6 km/h 72 % 0.0 mm
22:42 10.6 °C 6.0 °C 1013.1 hPa Calm   1.6 km/h 73 % 0.0 mm
22:47 10.2 °C 6.2 °C 1013.1 hPa Calm   1.6 km/h 76 % 0.0 mm
22:52 9.8 °C 6.0 °C 1013.1 hPa Calm   1.6 km/h 77 % 0.0 mm
22:57 9.6 °C 6.0 °C 1013.1 hPa Calm     78 % 0.0 mm
23:02 9.6 °C 5.8 °C 1013.1 hPa Calm     77 % 0.0 mm
23:17 9.3 °C 5.8 °C 1013.1 hPa Calm     79 % 0.0 mm
23:22 9.1 °C 5.7 °C 1013.1 hPa Calm     79 % 0.0 mm
23:27 8.8 °C 5.5 °C 1013.1 hPa Calm     80 % 0.0 mm
23:32 8.7 °C 5.6 °C 1013.1 hPa Calm     81 % 0.0 mm
23:37 8.4 °C 5.5 °C 1012.8 hPa Calm     82 % 0.0 mm
23:42 8.3 °C 5.6 °C 1012.8 hPa Calm     83 % 0.0 mm
23:47 8.4 °C 5.3 °C 1012.8 hPa Calm     81 % 0.0 mm
23:52 8.6 °C 5.3 °C 1012.8 hPa Calm     80 % 0.0 mm
Meteo18
Compliments of Weather Underground - 4 mb

Script developed by  Jim McMurry - jmcmurry@mwt.net Adapted for the template by  Wim van der Kuil - Leuven-Template.eu

You find our weather info also at:

European Weather Network

Weather Underground

Equipment we use:

Weather-station
Davis Vue

Weather-program
Meteohub

Weather-server
Raspberry PI 2 B+

Provider
1 and 1

Davis Vue

Meteohub

Raspberry PI 2 B+

1 and 1